createdAt,value
2019-06-15T00:02:26.454Z,22.13
2019-06-15T00:04:56.542Z,22.07
2019-06-15T00:07:26.606Z,22.02
2019-06-15T00:09:56.772Z,21.99
2019-06-15T00:12:28.643Z,21.96
2019-06-15T00:14:58.702Z,21.95
2019-06-15T00:17:28.818Z,21.94
2019-06-15T00:19:58.930Z,21.92
2019-06-15T00:22:29.046Z,21.93
2019-06-15T00:24:59.244Z,21.94
2019-06-15T00:27:29.344Z,21.95
2019-06-15T00:29:59.494Z,21.98
2019-06-15T00:32:29.719Z,21.98
2019-06-15T00:34:59.801Z,21.98
2019-06-15T00:37:29.910Z,21.95
2019-06-15T00:40:02.843Z,21.93
2019-06-15T00:42:32.882Z,21.92
2019-06-15T00:45:04.732Z,21.87
2019-06-15T00:47:34.842Z,21.84
2019-06-15T00:50:05.438Z,21.84
2019-06-15T00:52:35.653Z,21.80
2019-06-15T00:55:06.500Z,21.77
2019-06-15T00:57:36.594Z,21.74
2019-06-15T01:00:07.504Z,21.72
2019-06-15T01:02:37.666Z,21.72
2019-06-15T01:05:07.924Z,21.71
2019-06-15T01:07:38.076Z,21.66
2019-06-15T01:10:10.110Z,21.62
2019-06-15T01:12:40.193Z,21.59
2019-06-15T01:15:10.582Z,21.56
2019-06-15T01:17:40.719Z,21.54
2019-06-15T01:20:10.770Z,21.54
2019-06-15T01:22:40.941Z,21.54
2019-06-15T01:25:11.414Z,21.53
2019-06-15T01:27:43.122Z,21.55
2019-06-15T01:30:13.543Z,21.57
2019-06-15T01:32:43.684Z,21.56
2019-06-15T01:35:14.048Z,21.51
2019-06-15T01:37:44.249Z,21.42
2019-06-15T01:40:14.612Z,21.34
2019-06-15T01:42:44.771Z,21.28
2019-06-15T01:45:14.951Z,21.21
2019-06-15T01:47:46.272Z,21.17
2019-06-15T01:50:16.342Z,21.10
2019-06-15T01:52:46.410Z,21.07
2019-06-15T01:55:20.864Z,21.02
2019-06-15T01:57:50.361Z,21.02
2019-06-15T02:00:22.908Z,20.99
2019-06-15T02:02:52.998Z,20.98
2019-06-15T02:05:23.089Z,20.96
2019-06-15T02:07:53.107Z,20.97
2019-06-15T02:10:30.812Z,20.96
2019-06-15T02:13:00.882Z,21.00
2019-06-15T02:15:33.314Z,21.00
2019-06-15T02:18:03.437Z,21.01
2019-06-15T02:20:33.496Z,21.00
2019-06-15T02:23:03.639Z,21.00
2019-06-15T02:25:36.819Z,20.99
2019-06-15T02:28:09.107Z,20.96
2019-06-15T02:30:39.198Z,20.96
2019-06-15T02:33:09.233Z,20.86
2019-06-15T02:35:39.361Z,20.83
2019-06-15T02:38:09.417Z,20.78
2019-06-15T02:40:39.548Z,20.79
2019-06-15T02:43:09.731Z,20.79
2019-06-15T02:45:42.812Z,20.79
2019-06-15T02:48:12.918Z,20.75
2019-06-15T02:50:43.001Z,20.69
2019-06-15T02:53:13.032Z,20.60
2019-06-15T02:55:50.537Z,20.53
2019-06-15T02:58:14.898Z,20.50
2019-06-15T03:01:06.273Z,20.48
2019-06-15T03:03:36.533Z,20.48
2019-06-15T03:06:07.122Z,20.44
2019-06-15T03:08:37.272Z,20.45
2019-06-15T03:11:08.731Z,20.47
2019-06-15T03:13:38.771Z,20.46
2019-06-15T03:16:08.896Z,20.40
2019-06-15T03:18:39.017Z,20.39
2019-06-15T03:21:09.057Z,20.36
2019-06-15T03:23:39.153Z,20.33
2019-06-15T03:26:09.278Z,20.31
2019-06-15T03:28:39.371Z,20.30
2019-06-15T03:31:13.513Z,20.31
2019-06-15T03:33:43.550Z,20.31
2019-06-15T03:36:13.591Z,20.30
2019-06-15T03:38:45.417Z,20.29
2019-06-15T03:41:15.529Z,20.30
2019-06-15T03:43:45.544Z,20.31
2019-06-15T03:46:15.609Z,20.31
2019-06-15T03:48:45.676Z,20.25
2019-06-15T03:51:15.789Z,20.19
2019-06-15T03:53:45.764Z,20.15
2019-06-15T03:56:21.445Z,20.11
2019-06-15T03:58:47.646Z,20.10
2019-06-15T04:01:27.255Z,20.09
2019-06-15T04:03:57.347Z,20.08
2019-06-15T04:06:27.390Z,20.08
2019-06-15T04:08:57.508Z,20.08
2019-06-15T04:11:27.720Z,20.05
2019-06-15T04:13:57.717Z,20.01
2019-06-15T04:16:28.172Z,19.98
2019-06-15T04:18:58.259Z,19.94
2019-06-15T04:21:30.877Z,19.89
2019-06-15T04:24:02.683Z,19.88
2019-06-15T04:26:36.386Z,19.86
2019-06-15T04:29:05.556Z,19.84
2019-06-15T04:31:35.645Z,19.84
2019-06-15T04:34:05.788Z,19.77
2019-06-15T04:36:35.923Z,19.87
2019-06-15T04:39:07.669Z,19.88
2019-06-15T04:41:37.745Z,19.91
2019-06-15T04:44:10.689Z,19.92
2019-06-15T04:46:40.783Z,19.92
2019-06-15T04:49:10.829Z,19.93
2019-06-15T04:51:40.895Z,19.92
2019-06-15T04:54:13.338Z,19.93
2019-06-15T04:56:50.987Z,19.93
2019-06-15T04:59:18.293Z,19.91
2019-06-15T05:01:48.896Z,19.88
2019-06-15T05:04:19.003Z,19.89
2019-06-15T05:06:49.144Z,19.86
2019-06-15T05:09:19.225Z,19.89
2019-06-15T05:11:49.341Z,19.91
2019-06-15T05:14:19.407Z,19.90
2019-06-15T05:16:49.475Z,19.92
2019-06-15T05:19:19.636Z,19.95
2019-06-15T05:21:49.706Z,19.98
2019-06-15T05:24:19.867Z,19.98
2019-06-15T05:26:50.043Z,19.98
2019-06-15T05:29:20.195Z,20.05
2019-06-15T05:31:50.238Z,20.06
2019-06-15T05:34:20.316Z,20.07
2019-06-15T05:36:50.349Z,20.06
2019-06-15T05:39:20.394Z,20.08
2019-06-15T05:41:50.495Z,20.13
2019-06-15T05:44:20.550Z,20.18
2019-06-15T05:46:50.608Z,20.23
2019-06-15T05:49:20.704Z,20.31
2019-06-15T05:51:50.759Z,20.42
2019-06-15T05:54:20.981Z,20.53
2019-06-15T05:56:51.122Z,20.58
2019-06-15T05:59:21.273Z,20.56
2019-06-15T06:01:51.381Z,20.66
2019-06-15T06:04:21.582Z,20.75
2019-06-15T06:06:51.744Z,20.86
2019-06-15T06:09:21.994Z,20.98
2019-06-15T06:11:52.034Z,21.15
2019-06-15T06:14:25.071Z,21.29
2019-06-15T06:16:55.122Z,21.51
2019-06-15T06:19:25.230Z,21.66
2019-06-15T06:21:58.201Z,21.88
2019-06-15T06:24:27.112Z,22.05
2019-06-15T06:26:57.337Z,22.22
2019-06-15T06:29:27.485Z,22.31
2019-06-15T06:31:57.579Z,22.45
2019-06-15T06:34:27.682Z,22.55
2019-06-15T06:36:57.762Z,22.70
2019-06-15T06:39:27.920Z,22.95
2019-06-15T06:41:58.067Z,23.10
2019-06-15T06:44:28.208Z,23.15
2019-06-15T06:46:58.280Z,23.24
2019-06-15T06:49:28.426Z,23.32
2019-06-15T06:52:00.247Z,23.36
2019-06-15T06:54:30.414Z,23.41
2019-06-15T06:57:00.558Z,23.48
2019-06-15T06:59:30.751Z,23.55
2019-06-15T07:02:00.835Z,23.62
2019-06-15T07:04:30.931Z,23.67
2019-06-15T07:07:01.016Z,23.75
2019-06-15T07:09:39.459Z,23.85
2019-06-15T07:12:11.728Z,23.96
2019-06-15T07:14:42.812Z,23.82
2019-06-15T07:17:12.914Z,23.64
2019-06-15T07:19:43.727Z,23.54
2019-06-15T07:22:17.204Z,23.49
2019-06-15T07:24:47.619Z,23.52
2019-06-15T07:27:20.059Z,23.59
2019-06-15T07:30:10.981Z,23.58
2019-06-15T07:32:46.870Z,23.63
2019-06-15T07:35:17.178Z,23.75
2019-06-15T07:38:06.155Z,23.92
2019-06-15T07:41:07.125Z,24.01
2019-06-15T07:43:40.395Z,24.16
2019-06-15T07:46:11.797Z,24.12
2019-06-15T07:48:44.019Z,24.10
2019-06-15T07:51:16.127Z,24.17
2019-06-15T07:53:46.289Z,24.21
2019-06-15T07:56:16.402Z,24.29
2019-06-15T07:58:46.614Z,24.39
2019-06-15T08:01:16.907Z,24.54
2019-06-15T08:03:47.020Z,24.64
2019-06-15T08:06:19.895Z,24.72
2019-06-15T08:08:50.118Z,24.73
2019-06-15T08:11:20.157Z,24.79
2019-06-15T08:13:52.902Z,24.83
2019-06-15T08:16:23.057Z,24.77
2019-06-15T08:18:53.182Z,24.87
2019-06-15T08:21:23.320Z,24.94
2019-06-15T08:23:53.449Z,24.97
2019-06-15T08:26:23.631Z,25.02
2019-06-15T08:28:53.937Z,25.08
2019-06-15T08:31:24.078Z,25.09
2019-06-15T08:33:54.131Z,25.07
2019-06-15T08:36:24.307Z,25.11
2019-06-15T08:38:54.464Z,25.11
2019-06-15T08:41:24.674Z,25.11
2019-06-15T08:43:54.914Z,25.11
2019-06-15T08:46:26.767Z,25.12
2019-06-15T08:48:56.899Z,25.15
2019-06-15T08:51:27.120Z,25.21
2019-06-15T08:53:57.181Z,25.22
2019-06-15T08:56:27.232Z,25.23
2019-06-15T08:58:57.968Z,25.24
2019-06-15T09:01:28.137Z,25.30
2019-06-15T09:03:58.367Z,25.29
2019-06-15T09:06:28.750Z,25.23
2019-06-15T09:08:58.872Z,25.19
2019-06-15T09:11:29.019Z,25.25
2019-06-15T09:13:59.138Z,25.40
2019-06-15T09:16:29.300Z,25.46
2019-06-15T09:19:02.423Z,25.53
2019-06-15T09:21:35.214Z,25.60
2019-06-15T09:24:05.435Z,25.54
2019-06-15T09:26:35.533Z,25.47
2019-06-15T09:29:11.427Z,25.46
2019-06-15T09:31:37.746Z,25.45
2019-06-15T09:34:18.566Z,25.45
2019-06-15T09:36:39.886Z,25.46
2019-06-15T09:39:10.288Z,25.43
2019-06-15T09:41:40.488Z,25.42
2019-06-15T09:44:10.673Z,25.46
2019-06-15T09:46:40.782Z,25.52
2019-06-15T09:49:14.976Z,25.58
2019-06-15T09:51:45.185Z,25.64
2019-06-15T09:54:15.474Z,25.70
2019-06-15T09:56:45.637Z,25.70
2019-06-15T09:59:25.538Z,25.83
2019-06-15T10:01:50.408Z,25.99
2019-06-15T10:04:23.614Z,26.08
2019-06-15T10:06:53.644Z,26.17
2019-06-15T10:09:23.781Z,26.23
2019-06-15T10:11:54.036Z,26.30
2019-06-15T10:14:24.166Z,26.41
2019-06-15T10:16:54.281Z,26.28
2019-06-15T10:19:27.372Z,26.56
2019-06-15T10:21:57.516Z,26.67
2019-06-15T10:24:27.646Z,26.79
2019-06-15T10:27:00.891Z,26.98
2019-06-15T10:29:41.599Z,27.11
2019-06-15T10:32:02.960Z,27.11
2019-06-15T10:34:34.138Z,26.93
2019-06-15T10:37:04.364Z,26.77
2019-06-15T10:39:34.558Z,26.73
2019-06-15T10:42:04.756Z,26.81
2019-06-15T10:44:34.952Z,26.83
2019-06-15T10:47:05.288Z,26.71
2019-06-15T10:49:35.514Z,26.63
2019-06-15T10:52:05.957Z,26.52
2019-06-15T10:54:36.144Z,26.71
2019-06-15T10:57:06.263Z,26.99
2019-06-15T10:59:36.566Z,27.04
2019-06-15T11:02:07.403Z,27.10
2019-06-15T11:04:44.157Z,27.21
2019-06-15T11:07:14.252Z,27.14
2019-06-15T11:09:44.372Z,27.07
2019-06-15T11:12:14.432Z,27.12
2019-06-15T11:14:44.555Z,27.13
2019-06-15T11:17:14.839Z,27.19
2019-06-15T11:19:45.023Z,27.39
2019-06-15T11:22:15.427Z,27.52
2019-06-15T11:24:45.527Z,27.55
2019-06-15T11:27:15.655Z,27.40
2019-06-15T11:29:45.951Z,27.29
2019-06-15T11:32:16.122Z,27.31
2019-06-15T11:34:49.773Z,27.31
2019-06-15T11:37:19.837Z,27.19
2019-06-15T11:39:52.290Z,27.42
2019-06-15T11:42:22.366Z,27.47
2019-06-15T11:44:52.516Z,27.65
2019-06-15T11:47:22.560Z,27.84
2019-06-15T11:49:52.636Z,27.90
2019-06-15T11:52:22.699Z,27.91
2019-06-15T11:54:52.906Z,27.90
2019-06-15T11:57:25.635Z,28.08
2019-06-15T11:59:55.699Z,28.31
2019-06-15T12:02:28.472Z,28.38
2019-06-15T12:04:58.993Z,28.34
2019-06-15T12:07:29.280Z,28.29
2019-06-15T12:09:59.393Z,28.29
2019-06-15T12:12:29.573Z,28.29
2019-06-15T12:14:59.655Z,28.37
2019-06-15T12:17:29.868Z,28.31
2019-06-15T12:19:59.961Z,28.07
2019-06-15T12:22:30.129Z,28.19
2019-06-15T12:25:00.233Z,28.01
2019-06-15T12:27:30.458Z,28.03
2019-06-15T12:30:00.580Z,27.98
2019-06-15T12:32:30.671Z,27.93
2019-06-15T12:35:00.765Z,27.83
2019-06-15T12:37:30.949Z,27.78
2019-06-15T12:40:01.035Z,27.84
2019-06-15T12:42:31.203Z,27.95
2019-06-15T12:45:01.962Z,27.98
2019-06-15T12:47:32.179Z,27.99
2019-06-15T12:50:02.463Z,27.96
2019-06-15T12:52:32.695Z,28.02
2019-06-15T12:55:02.809Z,28.07
2019-06-15T12:57:32.971Z,28.14
2019-06-15T13:00:03.035Z,28.00
2019-06-15T13:02:33.131Z,28.07
2019-06-15T13:05:03.305Z,28.30
2019-06-15T13:07:33.397Z,28.50
2019-06-15T13:10:03.497Z,28.55
2019-06-15T13:12:34.080Z,28.57
2019-06-15T13:15:04.534Z,28.83
2019-06-15T13:17:34.909Z,29.28
2019-06-15T13:20:05.784Z,29.46
2019-06-15T13:22:35.935Z,29.64
2019-06-15T13:25:06.313Z,29.75
2019-06-15T13:27:36.751Z,29.40
2019-06-15T13:30:07.427Z,29.15
2019-06-15T13:32:37.526Z,29.07
2019-06-15T13:35:08.189Z,28.91
2019-06-15T13:37:42.215Z,28.80
2019-06-15T13:40:10.068Z,29.07
2019-06-15T13:42:40.323Z,29.26
2019-06-15T13:45:12.459Z,29.46
2019-06-15T13:47:42.582Z,29.47
2019-06-15T13:50:12.767Z,29.59
2019-06-15T13:52:42.884Z,29.48
2019-06-15T13:55:12.972Z,29.18
2019-06-15T13:57:43.077Z,28.83
2019-06-15T14:00:13.227Z,28.63
2019-06-15T14:02:43.299Z,28.81
2019-06-15T14:05:13.456Z,29.02
2019-06-15T14:07:43.556Z,29.66
2019-06-15T14:10:14.339Z,30.12
2019-06-15T14:12:44.695Z,29.96
2019-06-15T14:15:16.842Z,30.13
2019-06-15T14:17:47.180Z,30.42
2019-06-15T14:20:17.377Z,30.40
2019-06-15T14:22:47.477Z,30.48
2019-06-15T14:25:17.578Z,30.76
2019-06-15T14:27:47.631Z,31.31
2019-06-15T14:30:17.750Z,31.51
2019-06-15T14:32:48.192Z,31.47
2019-06-15T14:35:18.689Z,31.47
2019-06-15T14:37:49.033Z,31.15
2019-06-15T14:40:20.345Z,30.72
2019-06-15T14:42:51.816Z,30.24
2019-06-15T14:45:21.951Z,30.30
2019-06-15T14:47:52.183Z,30.04
2019-06-15T14:50:22.268Z,29.79
2019-06-15T14:52:52.448Z,29.20
2019-06-15T14:55:22.591Z,29.01
2019-06-15T14:57:52.619Z,29.21
2019-06-15T15:00:23.121Z,29.53
2019-06-15T15:02:55.821Z,29.66
2019-06-15T15:05:27.338Z,29.43
2019-06-15T15:07:57.244Z,29.52
2019-06-15T15:10:27.327Z,30.04
2019-06-15T15:12:57.493Z,30.63
2019-06-15T15:15:27.639Z,30.66
2019-06-15T15:17:57.879Z,30.18
2019-06-15T15:20:28.057Z,29.92
2019-06-15T15:22:58.075Z,29.71
2019-06-15T15:25:30.935Z,29.59
2019-06-15T15:28:00.179Z,29.38
2019-06-15T15:30:39.053Z,29.30
2019-06-15T15:33:09.303Z,29.32
2019-06-15T15:35:39.670Z,29.41
2019-06-15T15:38:10.180Z,29.42
2019-06-15T15:40:40.259Z,29.26
2019-06-15T15:43:10.447Z,29.07
2019-06-15T15:45:40.488Z,29.15
2019-06-15T15:48:10.550Z,29.10
2019-06-15T15:50:40.648Z,29.08
2019-06-15T15:53:11.610Z,28.96
2019-06-15T15:55:41.701Z,29.19
2019-06-15T15:58:11.775Z,29.00
2019-06-15T16:00:41.902Z,28.90
2019-06-15T16:03:12.008Z,28.58
2019-06-15T16:05:42.243Z,28.50
2019-06-15T16:08:13.522Z,28.51
2019-06-15T16:10:46.012Z,28.89
2019-06-15T16:13:16.578Z,28.87
2019-06-15T16:15:46.754Z,28.78
2019-06-15T16:18:20.008Z,28.88
2019-06-15T16:20:50.113Z,28.73
2019-06-15T16:23:20.153Z,28.53
2019-06-15T16:25:50.426Z,28.07
2019-06-15T16:28:20.448Z,27.96
2019-06-15T16:31:05.026Z,27.91
2019-06-15T16:33:22.284Z,27.88
2019-06-15T16:35:52.481Z,27.78
2019-06-15T16:38:23.463Z,27.55
2019-06-15T16:40:55.999Z,27.28
2019-06-15T16:43:28.708Z,27.06
2019-06-15T16:45:57.384Z,27.01
2019-06-15T16:48:27.451Z,27.05
2019-06-15T16:50:57.930Z,26.84
2019-06-15T16:53:28.052Z,26.75
2019-06-15T16:55:58.121Z,26.74
2019-06-15T16:58:28.179Z,26.71
2019-06-15T17:00:58.268Z,26.75
2019-06-15T17:03:29.549Z,26.77
2019-06-15T17:05:59.871Z,26.74
2019-06-15T17:08:29.964Z,26.68
2019-06-15T17:11:00.128Z,26.70
2019-06-15T17:13:30.420Z,26.61
2019-06-15T17:16:01.388Z,26.58
2019-06-15T17:18:31.553Z,26.55
2019-06-15T17:21:01.945Z,26.52
2019-06-15T17:23:32.000Z,26.40
2019-06-15T17:26:02.078Z,26.36
2019-06-15T17:28:32.134Z,26.22
2019-06-15T17:31:02.232Z,26.05
2019-06-15T17:33:37.612Z,25.99
2019-06-15T17:36:06.594Z,25.92
2019-06-15T17:38:36.995Z,25.78
2019-06-15T17:41:07.283Z,25.63
2019-06-15T17:43:37.418Z,25.57
2019-06-15T17:46:07.580Z,25.53
2019-06-15T17:48:37.684Z,25.49
2019-06-15T17:51:07.783Z,25.47
2019-06-15T17:53:37.911Z,25.44
2019-06-15T17:56:08.066Z,25.40
2019-06-15T17:58:38.209Z,25.35
2019-06-15T18:01:08.355Z,25.35
2019-06-15T18:03:50.673Z,25.29
2019-06-15T18:06:10.205Z,25.18
2019-06-15T18:08:40.549Z,25.03
2019-06-15T18:11:10.603Z,24.97
2019-06-15T18:13:40.710Z,24.92
2019-06-15T18:16:10.785Z,24.84
2019-06-15T18:18:40.867Z,24.81
2019-06-15T18:21:10.934Z,24.77
2019-06-15T18:23:42.517Z,24.69
2019-06-15T18:26:12.615Z,24.60
2019-06-15T18:28:43.017Z,24.53
2019-06-15T18:31:13.077Z,24.49
2019-06-15T18:33:43.183Z,24.45
2019-06-15T18:36:13.286Z,24.39
2019-06-15T18:38:46.343Z,24.31
2019-06-15T18:41:16.959Z,24.20
2019-06-15T18:43:47.518Z,24.11
2019-06-15T18:46:17.641Z,24.03
2019-06-15T18:48:47.730Z,23.94
2019-06-15T18:51:18.665Z,23.85
2019-06-15T18:53:48.747Z,23.78
2019-06-15T18:56:18.873Z,23.73
2019-06-15T18:58:49.101Z,23.68
2019-06-15T19:01:19.547Z,23.64
2019-06-15T19:03:49.700Z,23.59
2019-06-15T19:06:19.790Z,23.58
2019-06-15T19:08:49.796Z,23.54
2019-06-15T19:11:19.850Z,23.49
2019-06-15T19:13:50.103Z,23.43
2019-06-15T19:16:20.377Z,23.35
2019-06-15T19:18:52.461Z,23.29
2019-06-15T19:21:22.619Z,23.27
2019-06-15T19:23:52.838Z,23.24
2019-06-15T19:26:22.901Z,23.19
2019-06-15T19:28:52.972Z,23.04
2019-06-15T19:31:23.081Z,23.04
2019-06-15T19:33:53.466Z,23.01
2019-06-15T19:36:23.831Z,22.95
2019-06-15T19:38:53.977Z,22.90
2019-06-15T19:41:26.519Z,22.90
2019-06-15T19:43:57.122Z,22.87
2019-06-15T19:46:27.206Z,22.84
2019-06-15T19:48:57.344Z,22.79
2019-06-15T19:51:28.972Z,22.76
2019-06-15T19:53:59.413Z,22.71
2019-06-15T19:56:30.129Z,22.68
2019-06-15T19:59:00.783Z,22.68
2019-06-15T20:01:31.110Z,22.63
2019-06-15T20:04:01.374Z,22.63
2019-06-15T20:06:31.357Z,22.62
2019-06-15T20:09:01.513Z,22.56
2019-06-15T20:11:31.733Z,22.47
2019-06-15T20:14:01.933Z,22.40
2019-06-15T20:16:32.078Z,22.34
2019-06-15T20:19:02.411Z,22.31
2019-06-15T20:21:32.554Z,22.30
2019-06-15T20:24:02.899Z,22.26
2019-06-15T20:26:36.537Z,22.12
2019-06-15T20:29:12.618Z,21.99
2019-06-15T20:31:42.721Z,21.84
2019-06-15T20:34:13.006Z,21.78
2019-06-15T20:36:43.265Z,21.65
2019-06-15T20:39:16.288Z,21.62
2019-06-15T20:41:47.244Z,21.56
2019-06-15T20:44:17.437Z,21.53
2019-06-15T20:47:00.676Z,21.50
2019-06-15T20:49:36.798Z,21.49
2019-06-15T20:52:07.116Z,21.47
2019-06-15T20:55:09.309Z,21.48
2019-06-15T20:57:42.216Z,21.47
2019-06-15T21:00:21.560Z,21.44
2019-06-15T21:02:55.962Z,21.42
2019-06-15T21:05:36.959Z,21.39
2019-06-15T21:08:06.936Z,21.39
2019-06-15T21:11:00.907Z,21.38
2019-06-15T21:13:33.237Z,21.33
2019-06-15T21:16:03.380Z,21.28
2019-06-15T21:18:47.571Z,21.27
2019-06-15T21:21:17.795Z,21.28
2019-06-15T21:24:40.082Z,21.26
2019-06-15T21:27:47.471Z,21.20
2019-06-15T21:30:18.206Z,21.17
2019-06-15T21:32:48.336Z,21.17
2019-06-15T21:35:48.950Z,21.17
2019-06-15T21:38:13.731Z,21.17
2019-06-15T21:40:47.534Z,21.13
2019-06-15T21:43:20.326Z,21.07
2019-06-15T21:48:29.195Z,21.01
2019-06-15T21:51:00.875Z,20.99
2019-06-15T21:53:31.073Z,20.97
2019-06-15T21:56:26.736Z,20.97
2019-06-15T21:58:47.071Z,20.95
2019-06-15T22:01:40.320Z,20.86
2019-06-15T22:07:13.739Z,20.79
2019-06-15T22:09:43.903Z,20.62
2019-06-15T22:12:16.298Z,20.72
2019-06-15T22:15:06.967Z,20.68
2019-06-15T22:17:37.281Z,20.68
2019-06-15T22:20:09.538Z,20.67
2019-06-15T22:22:42.890Z,20.64
2019-06-15T22:25:15.938Z,20.61
2019-06-15T22:27:46.799Z,20.61
2019-06-15T22:30:17.317Z,20.59
2019-06-15T22:32:48.245Z,20.56
2019-06-15T22:35:21.082Z,20.54
2019-06-15T22:37:53.091Z,20.51
2019-06-15T22:40:23.527Z,20.46
2019-06-15T22:42:56.293Z,20.43
2019-06-15T22:45:26.722Z,20.43
2019-06-15T22:47:59.844Z,20.40
2019-06-15T22:50:36.087Z,20.40
2019-06-15T22:53:07.304Z,20.42
2019-06-15T22:55:37.546Z,20.43
2019-06-15T22:58:07.748Z,20.43
2019-06-15T23:00:37.861Z,20.46
2019-06-15T23:03:07.925Z,20.48
2019-06-15T23:05:38.134Z,20.46
2019-06-15T23:08:08.293Z,20.48
2019-06-15T23:10:38.521Z,20.50
2019-06-15T23:13:08.605Z,20.47
2019-06-15T23:15:38.865Z,20.40
2019-06-15T23:18:29.308Z,20.29
2019-06-15T23:21:01.679Z,20.19
2019-06-15T23:24:11.821Z,20.03
2019-06-15T23:27:37.950Z,19.88
2019-06-15T23:30:11.718Z,19.68
2019-06-15T23:32:50.052Z,19.44
2019-06-15T23:35:26.239Z,19.20
2019-06-15T23:37:56.355Z,18.99
2019-06-15T23:43:29.513Z,18.65
2019-06-15T23:46:06.568Z,18.52
2019-06-15T23:48:36.571Z,18.43
2019-06-15T23:51:07.136Z,18.28
2019-06-15T23:53:37.596Z,18.23
2019-06-15T23:56:09.836Z,18.16
2019-06-15T23:58:41.035Z,18.10
